sensor_id;sensor_type;location;lat;lon;timestamp;pressure;altitude;pressure_sealevel;temperature;humidity
13456;BME280;6800;50.940;6.940;2022-08-02T00:00:12;101101.56;;;31.49;33.28
13456;BME280;6800;50.940;6.940;2022-08-02T00:04:13;101103.69;;;31.21;33.73
13456;BME280;6800;50.940;6.940;2022-08-02T00:08:13;101104.09;;;31.24;34.03
13456;BME280;6800;50.940;6.940;2022-08-02T00:12:14;101112.41;;;31.23;33.94
13456;BME280;6800;50.940;6.940;2022-08-02T00:16:14;101114.06;;;31.24;34.05
13456;BME280;6800;50.940;6.940;2022-08-02T00:20:15;101108.25;;;31.20;34.04
13456;BME280;6800;50.940;6.940;2022-08-02T00:24:15;101102.06;;;31.00;34.34
13456;BME280;6800;50.940;6.940;2022-08-02T00:28:15;101111.63;;;31.03;34.13
13456;BME280;6800;50.940;6.940;2022-08-02T00:32:16;101112.88;;;30.87;34.75
13456;BME280;6800;50.940;6.940;2022-08-02T00:36:16;101108.50;;;31.06;34.27
13456;BME280;6800;50.940;6.940;2022-08-02T00:40:20;101114.28;;;31.16;34.21
13456;BME280;6800;50.940;6.940;2022-08-02T00:44:21;101109.94;;;31.15;34.41
13456;BME280;6800;50.940;6.940;2022-08-02T00:48:21;101100.00;;;31.09;34.20
13456;BME280;6800;50.940;6.940;2022-08-02T00:52:23;101099.56;;;30.99;34.92
13456;BME280;6800;50.940;6.940;2022-08-02T00:56:23;101094.59;;;30.96;34.88
13456;BME280;6800;50.940;6.940;2022-08-02T01:00:25;101094.00;;;30.87;34.77
13456;BME280;6800;50.940;6.940;2022-08-02T01:04:26;101095.03;;;30.73;34.82
13456;BME280;6800;50.940;6.940;2022-08-02T01:08:26;101098.75;;;30.98;34.92
13456;BME280;6800;50.940;6.940;2022-08-02T01:12:28;101093.50;;;31.23;34.22
13456;BME280;6800;50.940;6.940;2022-08-02T01:16:32;101099.78;;;31.04;34.45
13456;BME280;6800;50.940;6.940;2022-08-02T01:21:05;101097.69;;;31.12;34.20
13456;BME280;6800;50.940;6.940;2022-08-02T01:25:19;101096.06;;;31.05;34.49
13456;BME280;6800;50.940;6.940;2022-08-02T01:29:32;101088.59;;;31.00;34.05
13456;BME280;6800;50.940;6.940;2022-08-02T01:34:05;101084.44;;;30.98;34.73
13456;BME280;6800;50.940;6.940;2022-08-02T01:38:12;101083.59;;;30.97;34.77
13456;BME280;6800;50.940;6.940;2022-08-02T01:42:15;101094.22;;;30.86;34.90
13456;BME280;6800;50.940;6.940;2022-08-02T01:46:17;101088.34;;;30.75;35.09
13456;BME280;6800;50.940;6.940;2022-08-02T01:50:23;101092.72;;;30.83;35.25
13456;BME280;6800;50.940;6.940;2022-08-02T01:54:26;101093.78;;;30.95;34.38
13456;BME280;6800;50.940;6.940;2022-08-02T01:58:30;101077.19;;;30.92;34.99
13456;BME280;6800;50.940;6.940;2022-08-02T02:02:36;101081.94;;;30.83;35.25
13456;BME280;6800;50.940;6.940;2022-08-02T02:06:41;101070.94;;;30.98;34.85
13456;BME280;6800;50.940;6.940;2022-08-02T02:10:43;101077.19;;;30.98;34.84
13456;BME280;6800;50.940;6.940;2022-08-02T02:14:44;101063.69;;;30.92;34.40
13456;BME280;6800;50.940;6.940;2022-08-02T02:18:45;101057.44;;;31.11;34.60
13456;BME280;6800;50.940;6.940;2022-08-02T02:22:48;101063.88;;;30.97;34.87
13456;BME280;6800;50.940;6.940;2022-08-02T02:26:49;101055.16;;;31.01;34.68
13456;BME280;6800;50.940;6.940;2022-08-02T02:30:54;101054.75;;;30.98;34.43
13456;BME280;6800;50.940;6.940;2022-08-02T02:34:58;101056.84;;;30.96;34.17
13456;BME280;6800;50.940;6.940;2022-08-02T02:39:02;101054.38;;;30.88;34.34
13456;BME280;6800;50.940;6.940;2022-08-02T02:43:04;101054.56;;;30.73;34.96
13456;BME280;6800;50.940;6.940;2022-08-02T02:47:08;101058.69;;;30.69;34.46
13456;BME280;6800;50.940;6.940;2022-08-02T02:51:10;101051.44;;;30.56;34.68
13456;BME280;6800;50.940;6.940;2022-08-02T02:55:11;101054.34;;;30.61;34.50
13456;BME280;6800;50.940;6.940;2022-08-02T02:59:12;101062.66;;;30.66;34.70
13456;BME280;6800;50.940;6.940;2022-08-02T03:03:15;101054.75;;;30.65;34.50
13456;BME280;6800;50.940;6.940;2022-08-02T03:07:16;101055.59;;;30.65;34.78
13456;BME280;6800;50.940;6.940;2022-08-02T03:11:16;101048.13;;;30.54;34.93
13456;BME280;6800;50.940;6.940;2022-08-02T03:15:20;101048.75;;;30.63;34.83
13456;BME280;6800;50.940;6.940;2022-08-02T03:19:21;101041.94;;;30.47;35.35
13456;BME280;6800;50.940;6.940;2022-08-02T03:23:22;101036.53;;;30.34;35.66
13456;BME280;6800;50.940;6.940;2022-08-02T03:27:22;101036.53;;;30.34;35.96
13456;BME280;6800;50.940;6.940;2022-08-02T03:31:22;101039.84;;;30.36;35.75
13456;BME280;6800;50.940;6.940;2022-08-02T03:35:22;101036.09;;;30.24;35.57
13456;BME280;6800;50.940;6.940;2022-08-02T03:39:24;101030.25;;;30.07;35.95
13456;BME280;6800;50.940;6.940;2022-08-02T03:43:25;101033.16;;;30.13;36.26
13456;BME280;6800;50.940;6.940;2022-08-02T03:47:27;101050.16;;;29.53;37.23
13456;BME280;6800;50.940;6.940;2022-08-02T03:51:27;101040.03;;;29.55;37.12
13456;BME280;6800;50.940;6.940;2022-08-02T03:55:28;101042.91;;;29.53;36.91
13456;BME280;6800;50.940;6.940;2022-08-02T03:59:28;101046.94;;;29.29;37.79
13456;BME280;6800;50.940;6.940;2022-08-02T04:03:28;101051.47;;;29.70;36.81
13456;BME280;6800;50.940;6.940;2022-08-02T04:07:29;101044.72;;;29.87;36.51
13456;BME280;6800;50.940;6.940;2022-08-02T04:11:29;101038.34;;;30.14;36.44
13456;BME280;6800;50.940;6.940;2022-08-02T04:15:29;101038.78;;;30.18;36.06
13456;BME280;6800;50.940;6.940;2022-08-02T04:19:42;101048.88;;;29.89;36.83
13456;BME280;6800;50.940;6.940;2022-08-02T04:23:46;101051.31;;;29.78;37.29
13456;BME280;6800;50.940;6.940;2022-08-02T04:27:47;101038.56;;;30.19;36.42
13456;BME280;6800;50.940;6.940;2022-08-02T04:31:50;101047.47;;;30.20;37.19
13456;BME280;6800;50.940;6.940;2022-08-02T04:35:51;101047.25;;;30.21;37.40
13456;BME280;6800;50.940;6.940;2022-08-02T04:39:51;101051.59;;;30.02;37.57
13456;BME280;6800;50.940;6.940;2022-08-02T04:43:52;101060.31;;;30.04;37.10
13456;BME280;6800;50.940;6.940;2022-08-02T04:47:52;101066.69;;;29.84;37.74
13456;BME280;6800;50.940;6.940;2022-08-02T04:51:52;101061.75;;;30.07;37.23
13456;BME280;6800;50.940;6.940;2022-08-02T04:55:53;101056.38;;;30.27;36.84
13456;BME280;6800;50.940;6.940;2022-08-02T04:59:54;101059.50;;;30.17;37.14
13456;BME280;6800;50.940;6.940;2022-08-02T05:03:55;101053.09;;;30.31;36.73
13456;BME280;6800;50.940;6.940;2022-08-02T05:07:55;101048.56;;;30.51;36.81
13456;BME280;6800;50.940;6.940;2022-08-02T05:11:56;101057.66;;;30.50;36.42
13456;BME280;6800;50.940;6.940;2022-08-02T05:15:56;101056.84;;;30.56;36.58
13456;BME280;6800;50.940;6.940;2022-08-02T05:20:00;101067.84;;;30.94;36.24
13456;BME280;6800;50.940;6.940;2022-08-02T05:24:00;101078.78;;;31.25;35.34
13456;BME280;6800;50.940;6.940;2022-08-02T05:28:00;101072.00;;;30.64;36.46
13456;BME280;6800;50.940;6.940;2022-08-02T05:32:01;101070.88;;;30.06;37.84
13456;BME280;6800;50.940;6.940;2022-08-02T05:36:01;101068.66;;;30.75;36.30
13456;BME280;6800;50.940;6.940;2022-08-02T05:40:02;101069.72;;;30.87;36.33
13456;BME280;6800;50.940;6.940;2022-08-02T05:44:03;101064.56;;;31.56;35.41
13456;BME280;6800;50.940;6.940;2022-08-02T05:48:04;101056.66;;;31.99;34.33
13456;BME280;6800;50.940;6.940;2022-08-02T05:52:16;101062.16;;;32.73;33.30
13456;BME280;6800;50.940;6.940;2022-08-02T05:56:37;101066.78;;;32.90;32.82
13456;BME280;6800;50.940;6.940;2022-08-02T06:00:42;101075.03;;;33.20;32.26
13456;BME280;6800;50.940;6.940;2022-08-02T06:09:24;101057.91;;;34.45;30.87
13456;BME280;6800;50.940;6.940;2022-08-02T06:13:24;101061.94;;;32.74;32.19
13456;BME280;6800;50.940;6.940;2022-08-02T06:17:25;101064.81;;;33.22;32.20
13456;BME280;6800;50.940;6.940;2022-08-02T06:21:26;101056.28;;;34.03;30.42
13456;BME280;6800;50.940;6.940;2022-08-02T06:25:29;101070.47;;;33.87;30.85
13456;BME280;6800;50.940;6.940;2022-08-02T06:29:31;101054.06;;;35.22;29.07
13456;BME280;6800;50.940;6.940;2022-08-02T06:33:33;101048.56;;;35.05;28.25
13456;BME280;6800;50.940;6.940;2022-08-02T06:41:43;101054.41;;;36.38;26.82
13456;BME280;6800;50.940;6.940;2022-08-02T06:45:49;101052.44;;;35.61;28.04
13456;BME280;6800;50.940;6.940;2022-08-02T06:49:49;101043.53;;;36.05;27.23
13456;BME280;6800;50.940;6.940;2022-08-02T06:53:50;101035.53;;;36.82;26.12
13456;BME280;6800;50.940;6.940;2022-08-02T06:57:50;101049.41;;;37.40;25.14
13456;BME280;6800;50.940;6.940;2022-08-02T07:01:51;101056.09;;;37.11;25.71
13456;BME280;6800;50.940;6.940;2022-08-02T07:05:52;101054.53;;;37.15;25.35
13456;BME280;6800;50.940;6.940;2022-08-02T07:09:52;101049.66;;;38.72;23.91
13456;BME280;6800;50.940;6.940;2022-08-02T07:13:53;101053.34;;;39.54;23.16
13456;BME280;6800;50.940;6.940;2022-08-02T07:17:53;101048.38;;;39.41;22.70
13456;BME280;6800;50.940;6.940;2022-08-02T07:21:53;101040.41;;;39.30;23.09
13456;BME280;6800;50.940;6.940;2022-08-02T07:25:54;101039.56;;;38.41;24.21
13456;BME280;6800;50.940;6.940;2022-08-02T07:29:54;101041.03;;;39.52;22.49
13456;BME280;6800;50.940;6.940;2022-08-02T07:33:55;101037.63;;;40.67;21.78
13456;BME280;6800;50.940;6.940;2022-08-02T07:37:56;101041.97;;;40.88;21.93
13456;BME280;6800;50.940;6.940;2022-08-02T07:41:56;101038.28;;;41.18;21.27
13456;BME280;6800;50.940;6.940;2022-08-02T07:45:57;101038.31;;;42.44;19.96
13456;BME280;6800;50.940;6.940;2022-08-02T07:49:58;101035.72;;;41.47;20.92
13456;BME280;6800;50.940;6.940;2022-08-02T07:53:58;101027.91;;;42.41;19.88
13456;BME280;6800;50.940;6.940;2022-08-02T07:57:58;101034.22;;;42.13;19.87
13456;BME280;6800;50.940;6.940;2022-08-02T08:01:59;101035.41;;;41.97;20.51
13456;BME280;6800;50.940;6.940;2022-08-02T08:05:59;101027.16;;;41.53;20.58
13456;BME280;6800;50.940;6.940;2022-08-02T08:10:00;101022.81;;;42.87;19.14
13456;BME280;6800;50.940;6.940;2022-08-02T08:14:01;101023.91;;;41.95;20.15
13456;BME280;6800;50.940;6.940;2022-08-02T08:18:01;101029.97;;;41.43;20.91
13456;BME280;6800;50.940;6.940;2022-08-02T08:22:01;101024.31;;;42.12;20.21
13456;BME280;6800;50.940;6.940;2022-08-02T08:26:03;101013.50;;;43.07;18.95
13456;BME280;6800;50.940;6.940;2022-08-02T08:30:04;101007.84;;;43.59;18.47
13456;BME280;6800;50.940;6.940;2022-08-02T08:34:04;101007.22;;;44.64;17.40
13456;BME280;6800;50.940;6.940;2022-08-02T08:38:05;101001.22;;;43.79;18.22
13456;BME280;6800;50.940;6.940;2022-08-02T08:42:07;101002.53;;;43.25;18.87
13456;BME280;6800;50.940;6.940;2022-08-02T08:46:09;101006.91;;;44.20;18.09
13456;BME280;6800;50.940;6.940;2022-08-02T08:50:17;101004.84;;;42.14;19.42
13456;BME280;6800;50.940;6.940;2022-08-02T08:54:22;100991.97;;;44.53;17.21
13456;BME280;6800;50.940;6.940;2022-08-02T08:58:23;100999.00;;;46.20;16.47
13456;BME280;6800;50.940;6.940;2022-08-02T09:02:23;100989.19;;;46.67;15.75
13456;BME280;6800;50.940;6.940;2022-08-02T09:06:24;100985.16;;;46.82;15.61
13456;BME280;6800;50.940;6.940;2022-08-02T09:10:41;100981.63;;;45.40;16.86
13456;BME280;6800;50.940;6.940;2022-08-02T09:14:44;100984.47;;;46.06;16.40
13456;BME280;6800;50.940;6.940;2022-08-02T09:18:45;100979.69;;;44.32;18.02
13456;BME280;6800;50.940;6.940;2022-08-02T09:23:04;100979.84;;;43.89;17.87
13456;BME280;6800;50.940;6.940;2022-08-02T09:27:19;100963.03;;;42.17;20.13
13456;BME280;6800;50.940;6.940;2022-08-02T09:31:22;100961.97;;;43.73;17.94
13456;BME280;6800;50.940;6.940;2022-08-02T09:35:31;100960.59;;;46.10;16.31
13456;BME280;6800;50.940;6.940;2022-08-02T09:39:42;100960.69;;;46.67;15.68
13456;BME280;6800;50.940;6.940;2022-08-02T09:43:43;100957.31;;;45.86;15.88
13456;BME280;6800;50.940;6.940;2022-08-02T09:47:48;100951.44;;;49.21;13.81
13456;BME280;6800;50.940;6.940;2022-08-02T09:51:50;100950.28;;;47.37;14.46
13456;BME280;6800;50.940;6.940;2022-08-02T09:55:54;100952.94;;;48.23;13.68
13456;BME280;6800;50.940;6.940;2022-08-02T09:59:58;100955.31;;;47.61;14.37
13456;BME280;6800;50.940;6.940;2022-08-02T10:04:04;100949.13;;;44.60;16.48
13456;BME280;6800;50.940;6.940;2022-08-02T10:08:08;100940.31;;;45.93;14.39
13456;BME280;6800;50.940;6.940;2022-08-02T10:12:08;100934.91;;;48.00;13.41
13456;BME280;6800;50.940;6.940;2022-08-02T10:16:10;100943.06;;;47.88;13.10
13456;BME280;6800;50.940;6.940;2022-08-02T10:20:11;100930.97;;;48.09;12.61
13456;BME280;6800;50.940;6.940;2022-08-02T10:24:18;100938.38;;;47.54;12.83
13456;BME280;6800;50.940;6.940;2022-08-02T10:28:30;100935.28;;;46.25;14.48
13456;BME280;6800;50.940;6.940;2022-08-02T10:32:41;100924.09;;;48.07;12.98
13456;BME280;6800;50.940;6.940;2022-08-02T10:36:42;100933.81;;;47.41;14.02
13456;BME280;6800;50.940;6.940;2022-08-02T10:40:52;100915.28;;;46.59;14.13
13456;BME280;6800;50.940;6.940;2022-08-02T10:45:08;100921.63;;;45.54;15.17
13456;BME280;6800;50.940;6.940;2022-08-02T10:49:16;100922.34;;;47.94;13.04
13456;BME280;6800;50.940;6.940;2022-08-02T10:53:31;100908.81;;;48.01;13.01
13456;BME280;6800;50.940;6.940;2022-08-02T10:57:33;100911.00;;;49.98;11.96
13456;BME280;6800;50.940;6.940;2022-08-02T11:01:42;100905.91;;;48.93;12.19
13456;BME280;6800;50.940;6.940;2022-08-02T11:05:42;100903.38;;;49.62;11.89
13456;BME280;6800;50.940;6.940;2022-08-02T11:09:44;100909.88;;;49.99;10.99
13456;BME280;6800;50.940;6.940;2022-08-02T11:14:05;100894.13;;;48.09;12.62
13456;BME280;6800;50.940;6.940;2022-08-02T11:18:08;100894.38;;;47.69;12.66
13456;BME280;6800;50.940;6.940;2022-08-02T11:22:13;100900.50;;;48.38;12.65
13456;BME280;6800;50.940;6.940;2022-08-02T11:30:29;100888.03;;;47.18;13.22
13456;BME280;6800;50.940;6.940;2022-08-02T11:34:30;100900.78;;;48.75;12.59
13456;BME280;6800;50.940;6.940;2022-08-02T11:38:32;100887.72;;;48.54;12.72
13456;BME280;6800;50.940;6.940;2022-08-02T11:42:38;100883.81;;;50.16;11.59
13456;BME280;6800;50.940;6.940;2022-08-02T11:46:39;100883.81;;;50.88;10.99
13456;BME280;6800;50.940;6.940;2022-08-02T11:50:40;100885.22;;;51.10;11.24
13456;BME280;6800;50.940;6.940;2022-08-02T11:54:41;100885.28;;;49.23;12.39
13456;BME280;6800;50.940;6.940;2022-08-02T11:59:03;100885.75;;;47.20;13.27
13456;BME280;6800;50.940;6.940;2022-08-02T12:03:05;100888.34;;;46.90;13.54
13456;BME280;6800;50.940;6.940;2022-08-02T12:07:06;100886.91;;;47.27;13.86
13456;BME280;6800;50.940;6.940;2022-08-02T12:11:07;100889.19;;;47.34;13.89
13456;BME280;6800;50.940;6.940;2022-08-02T12:15:08;100886.66;;;46.64;14.31
13456;BME280;6800;50.940;6.940;2022-08-02T12:19:08;100877.63;;;46.41;14.58
13456;BME280;6800;50.940;6.940;2022-08-02T12:23:18;100880.44;;;46.10;14.52
13456;BME280;6800;50.940;6.940;2022-08-02T12:27:36;100879.47;;;45.18;15.55
13456;BME280;6800;50.940;6.940;2022-08-02T12:31:41;100874.50;;;43.97;16.62
13456;BME280;6800;50.940;6.940;2022-08-02T12:35:41;100887.00;;;44.08;16.50
13456;BME280;6800;50.940;6.940;2022-08-02T12:39:43;100877.53;;;43.82;16.80
13456;BME280;6800;50.940;6.940;2022-08-02T12:43:45;100877.06;;;43.94;16.51
13456;BME280;6800;50.940;6.940;2022-08-02T12:47:47;100876.44;;;44.43;16.15
13456;BME280;6800;50.940;6.940;2022-08-02T12:51:51;100872.59;;;44.79;15.92
13456;BME280;6800;50.940;6.940;2022-08-02T12:55:54;100869.16;;;44.60;15.94
13456;BME280;6800;50.940;6.940;2022-08-02T12:59:55;100861.59;;;44.39;16.20
13456;BME280;6800;50.940;6.940;2022-08-02T13:03:55;100859.63;;;43.98;16.10
13456;BME280;6800;50.940;6.940;2022-08-02T13:07:58;100851.47;;;44.75;15.80
13456;BME280;6800;50.940;6.940;2022-08-02T13:11:58;100859.44;;;44.76;15.73
13456;BME280;6800;50.940;6.940;2022-08-02T13:15:58;100854.34;;;44.56;15.99
13456;BME280;6800;50.940;6.940;2022-08-02T13:19:59;100843.72;;;44.50;15.73
13456;BME280;6800;50.940;6.940;2022-08-02T13:23:59;100843.53;;;44.19;15.99
13456;BME280;6800;50.940;6.940;2022-08-02T13:27:59;100845.16;;;44.34;16.08
13456;BME280;6800;50.940;6.940;2022-08-02T13:32:01;100851.19;;;44.36;15.55
13456;BME280;6800;50.940;6.940;2022-08-02T13:36:01;100842.00;;;44.40;15.77
13456;BME280;6800;50.940;6.940;2022-08-02T13:40:03;100839.94;;;43.59;16.53
13456;BME280;6800;50.940;6.940;2022-08-02T13:44:04;100826.72;;;44.07;16.00
13456;BME280;6800;50.940;6.940;2022-08-02T13:48:04;100832.97;;;43.80;16.26
13456;BME280;6800;50.940;6.940;2022-08-02T13:52:06;100828.59;;;43.79;15.80
13456;BME280;6800;50.940;6.940;2022-08-02T13:56:07;100831.03;;;43.49;16.39
13456;BME280;6800;50.940;6.940;2022-08-02T14:00:08;100816.97;;;43.18;16.30
13456;BME280;6800;50.940;6.940;2022-08-02T14:04:08;100813.56;;;43.26;16.27
13456;BME280;6800;50.940;6.940;2022-08-02T14:08:08;100818.28;;;42.83;16.74
13456;BME280;6800;50.940;6.940;2022-08-02T14:12:09;100812.66;;;43.12;16.89
13456;BME280;6800;50.940;6.940;2022-08-02T14:16:10;100818.28;;;43.39;16.23
13456;BME280;6800;50.940;6.940;2022-08-02T14:20:10;100811.06;;;42.03;17.76
13456;BME280;6800;50.940;6.940;2022-08-02T14:24:11;100816.91;;;43.04;17.30
13456;BME280;6800;50.940;6.940;2022-08-02T14:28:11;100809.63;;;42.95;17.04
13456;BME280;6800;50.940;6.940;2022-08-02T14:32:11;100801.38;;;42.95;17.13
13456;BME280;6800;50.940;6.940;2022-08-02T14:36:12;100813.84;;;42.68;17.74
13456;BME280;6800;50.940;6.940;2022-08-02T14:40:12;100809.38;;;42.72;17.77
13456;BME280;6800;50.940;6.940;2022-08-02T14:44:13;100805.16;;;41.90;18.46
13456;BME280;6800;50.940;6.940;2022-08-02T14:48:13;100798.69;;;42.29;18.03
13456;BME280;6800;50.940;6.940;2022-08-02T14:52:13;100800.16;;;42.40;18.10
13456;BME280;6800;50.940;6.940;2022-08-02T14:56:14;100793.78;;;42.49;17.78
13456;BME280;6800;50.940;6.940;2022-08-02T15:00:15;100796.31;;;42.41;17.06
13456;BME280;6800;50.940;6.940;2022-08-02T15:04:16;100780.75;;;42.13;17.47
13456;BME280;6800;50.940;6.940;2022-08-02T15:08:17;100774.63;;;41.97;17.84
13456;BME280;6800;50.940;6.940;2022-08-02T15:12:19;100770.28;;;42.15;17.69
13456;BME280;6800;50.940;6.940;2022-08-02T15:16:19;100759.00;;;41.69;18.22
13456;BME280;6800;50.940;6.940;2022-08-02T15:20:19;100774.00;;;42.00;18.15
13456;BME280;6800;50.940;6.940;2022-08-02T15:24:20;100763.63;;;41.97;17.57
13456;BME280;6800;50.940;6.940;2022-08-02T15:28:20;100771.81;;;42.44;17.63
13456;BME280;6800;50.940;6.940;2022-08-02T15:32:20;100771.31;;;42.61;17.58
13456;BME280;6800;50.940;6.940;2022-08-02T15:36:21;100768.09;;;41.93;18.33
13456;BME280;6800;50.940;6.940;2022-08-02T15:40:22;100760.28;;;42.00;17.53
13456;BME280;6800;50.940;6.940;2022-08-02T15:44:22;100764.75;;;42.38;18.04
13456;BME280;6800;50.940;6.940;2022-08-02T15:48:23;100761.81;;;42.35;18.00
13456;BME280;6800;50.940;6.940;2022-08-02T15:52:25;100759.41;;;42.52;17.66
13456;BME280;6800;50.940;6.940;2022-08-02T15:56:25;100746.97;;;41.65;18.55
13456;BME280;6800;50.940;6.940;2022-08-02T16:00:26;100758.09;;;42.44;18.00
13456;BME280;6800;50.940;6.940;2022-08-02T16:04:28;100756.56;;;42.57;17.78
13456;BME280;6800;50.940;6.940;2022-08-02T16:08:29;100750.47;;;42.79;17.21
13456;BME280;6800;50.940;6.940;2022-08-02T16:12:30;100743.03;;;42.79;17.15
13456;BME280;6800;50.940;6.940;2022-08-02T16:16:32;100740.81;;;42.62;18.03
13456;BME280;6800;50.940;6.940;2022-08-02T16:20:32;100736.91;;;42.50;17.92
13456;BME280;6800;50.940;6.940;2022-08-02T16:24:33;100744.13;;;42.41;17.97
13456;BME280;6800;50.940;6.940;2022-08-02T16:28:33;100728.44;;;41.52;18.65
13456;BME280;6800;50.940;6.940;2022-08-02T16:32:34;100731.34;;;42.31;18.31
13456;BME280;6800;50.940;6.940;2022-08-02T16:36:34;100726.00;;;42.21;18.41
13456;BME280;6800;50.940;6.940;2022-08-02T16:40:34;100720.44;;;42.03;18.18
13456;BME280;6800;50.940;6.940;2022-08-02T16:44:34;100724.50;;;41.86;18.64
13456;BME280;6800;50.940;6.940;2022-08-02T16:48:35;100718.13;;;42.15;18.22
13456;BME280;6800;50.940;6.940;2022-08-02T16:52:37;100714.09;;;41.83;18.48
13456;BME280;6800;50.940;6.940;2022-08-02T16:56:37;100714.66;;;42.04;18.20
13456;BME280;6800;50.940;6.940;2022-08-02T17:00:38;100717.84;;;41.92;18.90
13456;BME280;6800;50.940;6.940;2022-08-02T17:04:38;100709.75;;;41.54;18.61
13456;BME280;6800;50.940;6.940;2022-08-02T17:08:38;100714.38;;;41.58;18.51
13456;BME280;6800;50.940;6.940;2022-08-02T17:12:39;100707.25;;;42.05;18.32
13456;BME280;6800;50.940;6.940;2022-08-02T17:16:39;100710.25;;;41.84;18.44
13456;BME280;6800;50.940;6.940;2022-08-02T17:20:39;100709.00;;;41.72;18.96
13456;BME280;6800;50.940;6.940;2022-08-02T17:24:40;100711.75;;;41.48;19.39
13456;BME280;6800;50.940;6.940;2022-08-02T17:28:41;100711.03;;;41.61;19.15
13456;BME280;6800;50.940;6.940;2022-08-02T17:32:42;100709.13;;;41.62;18.92
13456;BME280;6800;50.940;6.940;2022-08-02T17:36:43;100712.97;;;41.37;18.93
13456;BME280;6800;50.940;6.940;2022-08-02T17:40:43;100700.78;;;41.48;19.95
13456;BME280;6800;50.940;6.940;2022-08-02T17:44:43;100697.59;;;41.65;19.20
13456;BME280;6800;50.940;6.940;2022-08-02T17:48:44;100699.94;;;41.48;19.29
13456;BME280;6800;50.940;6.940;2022-08-02T17:53:04;100696.66;;;40.88;20.04
13456;BME280;6800;50.940;6.940;2022-08-02T17:57:04;100701.97;;;41.37;19.45
13456;BME280;6800;50.940;6.940;2022-08-02T18:01:09;100716.09;;;41.20;19.31
13456;BME280;6800;50.940;6.940;2022-08-02T18:05:09;100702.41;;;41.20;19.43
13456;BME280;6800;50.940;6.940;2022-08-02T18:09:11;100706.69;;;40.98;19.94
13456;BME280;6800;50.940;6.940;2022-08-02T18:13:13;100707.44;;;41.08;20.01
13456;BME280;6800;50.940;6.940;2022-08-02T18:17:13;100697.47;;;40.89;20.19
13456;BME280;6800;50.940;6.940;2022-08-02T18:21:13;100712.09;;;40.74;20.73
13456;BME280;6800;50.940;6.940;2022-08-02T18:25:14;100713.28;;;40.58;20.66
13456;BME280;6800;50.940;6.940;2022-08-02T18:29:14;100706.41;;;40.66;20.53
13456;BME280;6800;50.940;6.940;2022-08-02T18:33:17;100707.69;;;40.78;20.84
13456;BME280;6800;50.940;6.940;2022-08-02T18:37:18;100716.63;;;40.50;21.11
13456;BME280;6800;50.940;6.940;2022-08-02T18:41:18;100720.13;;;40.61;20.70
13456;BME280;6800;50.940;6.940;2022-08-02T18:45:18;100718.97;;;40.23;21.28
13456;BME280;6800;50.940;6.940;2022-08-02T18:49:19;100721.25;;;39.96;21.61
13456;BME280;6800;50.940;6.940;2022-08-02T18:53:19;100715.50;;;39.92;21.58
13456;BME280;6800;50.940;6.940;2022-08-02T18:57:22;100723.78;;;39.72;21.68
13456;BME280;6800;50.940;6.940;2022-08-02T19:01:23;100715.25;;;39.84;21.72
13456;BME280;6800;50.940;6.940;2022-08-02T19:05:24;100715.31;;;39.73;21.21
13456;BME280;6800;50.940;6.940;2022-08-02T19:09:24;100716.72;;;39.56;21.34
13456;BME280;6800;50.940;6.940;2022-08-02T19:13:25;100719.97;;;39.48;21.84
13456;BME280;6800;50.940;6.940;2022-08-02T19:17:25;100721.88;;;39.52;21.77
13456;BME280;6800;50.940;6.940;2022-08-02T19:21:26;100714.53;;;39.38;21.75
13456;BME280;6800;50.940;6.940;2022-08-02T19:25:26;100719.72;;;39.09;22.29
13456;BME280;6800;50.940;6.940;2022-08-02T19:29:26;100714.81;;;39.01;22.29
13456;BME280;6800;50.940;6.940;2022-08-02T19:33:27;100719.44;;;39.00;22.60
13456;BME280;6800;50.940;6.940;2022-08-02T19:37:28;100722.50;;;39.19;22.08
13456;BME280;6800;50.940;6.940;2022-08-02T19:41:28;100727.38;;;39.02;22.58
13456;BME280;6800;50.940;6.940;2022-08-02T19:45:29;100726.00;;;38.94;22.72
13456;BME280;6800;50.940;6.940;2022-08-02T19:49:29;100729.81;;;38.83;23.00
13456;BME280;6800;50.940;6.940;2022-08-02T19:53:31;100732.84;;;38.77;22.79
13456;BME280;6800;50.940;6.940;2022-08-02T19:57:31;100736.38;;;38.77;22.55
13456;BME280;6800;50.940;6.940;2022-08-02T20:01:34;100740.16;;;38.66;23.07
13456;BME280;6800;50.940;6.940;2022-08-02T20:05:35;100750.28;;;38.66;23.01
13456;BME280;6800;50.940;6.940;2022-08-02T20:09:35;100751.59;;;38.48;22.99
13456;BME280;6800;50.940;6.940;2022-08-02T20:13:35;100754.88;;;38.50;23.18
13456;BME280;6800;50.940;6.940;2022-08-02T20:17:37;100754.00;;;38.35;23.54
13456;BME280;6800;50.940;6.940;2022-08-02T20:21:38;100755.63;;;38.25;23.38
13456;BME280;6800;50.940;6.940;2022-08-02T20:25:38;100756.09;;;38.17;23.64
13456;BME280;6800;50.940;6.940;2022-08-02T20:29:38;100761.25;;;38.09;23.35
13456;BME280;6800;50.940;6.940;2022-08-02T20:33:39;100756.03;;;38.02;23.72
13456;BME280;6800;50.940;6.940;2022-08-02T20:37:39;100758.84;;;38.17;23.31
13456;BME280;6800;50.940;6.940;2022-08-02T20:41:40;100760.06;;;37.95;24.05
13456;BME280;6800;50.940;6.940;2022-08-02T20:45:42;100758.97;;;37.91;24.11
13456;BME280;6800;50.940;6.940;2022-08-02T20:49:42;100769.00;;;37.80;23.79
13456;BME280;6800;50.940;6.940;2022-08-02T20:54:01;100757.03;;;37.81;24.67
13456;BME280;6800;50.940;6.940;2022-08-02T20:58:01;100750.94;;;37.74;23.78
13456;BME280;6800;50.940;6.940;2022-08-02T21:02:03;100750.91;;;37.69;23.85
13456;BME280;6800;50.940;6.940;2022-08-02T21:06:03;100753.84;;;37.58;24.56
13456;BME280;6800;50.940;6.940;2022-08-02T21:10:05;100759.81;;;37.54;24.50
13456;BME280;6800;50.940;6.940;2022-08-02T21:14:05;100755.50;;;37.64;23.95
13456;BME280;6800;50.940;6.940;2022-08-02T21:18:06;100761.38;;;37.45;24.06
13456;BME280;6800;50.940;6.940;2022-08-02T21:22:06;100756.72;;;37.41;24.41
13456;BME280;6800;50.940;6.940;2022-08-02T21:26:07;100760.47;;;37.35;24.56
13456;BME280;6800;50.940;6.940;2022-08-02T21:30:07;100759.84;;;37.28;24.79
13456;BME280;6800;50.940;6.940;2022-08-02T21:34:08;100761.13;;;37.15;25.31